createdAt,value
2022-08-14T00:02:24.958Z,22.6
2022-08-14T00:04:51.593Z,22.6
2022-08-14T00:07:18.195Z,22.6
2022-08-14T00:09:44.820Z,22.5
2022-08-14T00:12:11.455Z,22.5
2022-08-14T00:14:36.593Z,22.5
2022-08-14T00:17:03.189Z,22.4
2022-08-14T00:19:29.820Z,22.4
2022-08-14T00:24:23.058Z,22.2
2022-08-14T00:26:49.699Z,22.2
2022-08-14T00:29:16.306Z,22.1
2022-08-14T00:31:42.933Z,22.1
2022-08-14T00:34:09.558Z,22
2022-08-14T00:36:36.198Z,21.9
2022-08-14T00:39:02.813Z,21.9
2022-08-14T00:41:27.947Z,21.9
2022-08-14T00:43:53.061Z,21.8
2022-08-14T00:48:46.305Z,21.8
2022-08-14T00:51:12.939Z,21.8
2022-08-14T00:53:39.543Z,21.7
2022-08-14T00:56:06.177Z,21.7
2022-08-14T00:58:32.806Z,21.6
2022-08-14T01:00:59.414Z,21.6
2022-08-14T01:03:26.048Z,21.5
2022-08-14T01:05:52.662Z,21.5
2022-08-14T01:08:19.292Z,21.4
2022-08-14T01:10:45.905Z,21.4
2022-08-14T01:13:12.523Z,21.3
2022-08-14T01:15:37.656Z,21.3
2022-08-14T01:18:04.297Z,21.2
2022-08-14T01:20:30.906Z,21.2
2022-08-14T01:22:57.521Z,21.1
2022-08-14T01:25:24.146Z,21.1
2022-08-14T01:27:50.780Z,21
2022-08-14T01:30:17.393Z,20.9
2022-08-14T01:32:44.003Z,20.8
2022-08-14T01:35:09.141Z,20.6
2022-08-14T01:37:34.279Z,20.3
2022-08-14T01:42:27.510Z,20.1
2022-08-14T01:44:54.134Z,20.2
2022-08-14T01:47:20.764Z,20.2
2022-08-14T01:49:47.399Z,20.2
2022-08-14T01:52:14.051Z,20.2
2022-08-14T01:54:40.640Z,20.2
2022-08-14T01:57:07.283Z,20.3
2022-08-14T01:59:33.890Z,20.3
2022-08-14T02:02:00.499Z,20.2
2022-08-14T02:04:27.134Z,20.2
2022-08-14T02:06:53.753Z,20.2
2022-08-14T02:09:18.890Z,20.2
2022-08-14T02:11:45.510Z,20.2
2022-08-14T02:14:12.119Z,20.2
2022-08-14T02:16:38.739Z,20.1
2022-08-14T02:19:05.387Z,19.9
2022-08-14T02:21:31.986Z,19.9
2022-08-14T02:23:58.626Z,19.8
2022-08-14T02:26:25.227Z,19.8
2022-08-14T02:28:51.857Z,19.8
2022-08-14T02:31:18.474Z,19.7
2022-08-14T02:33:45.111Z,19.7
2022-08-14T02:36:11.728Z,19.7
2022-08-14T02:38:38.338Z,19.6
2022-08-14T02:41:03.480Z,19.6
2022-08-14T02:43:30.106Z,19.6
2022-08-14T02:45:56.744Z,19.6
2022-08-14T02:48:23.334Z,19.5
2022-08-14T02:50:49.971Z,19.5
2022-08-14T02:53:16.586Z,19.5
2022-08-14T02:55:43.219Z,19.4
2022-08-14T03:00:36.463Z,19.2
2022-08-14T03:03:03.073Z,19.2
2022-08-14T03:05:29.710Z,19.2
2022-08-14T03:07:56.329Z,19.2
2022-08-14T03:10:22.949Z,19.2
2022-08-14T03:12:49.574Z,19.1
2022-08-14T03:15:16.180Z,19.1
2022-08-14T03:17:41.316Z,19.1
2022-08-14T03:20:07.930Z,19.1
2022-08-14T03:22:34.574Z,19.1
2022-08-14T03:25:01.187Z,19.1
2022-08-14T03:27:27.791Z,19.1
2022-08-14T03:29:54.429Z,19
2022-08-14T03:32:21.051Z,19
2022-08-14T03:34:47.672Z,19
2022-08-14T03:37:14.301Z,19
2022-08-14T03:39:40.932Z,18.9
2022-08-14T03:42:07.536Z,18.9
2022-08-14T03:44:34.162Z,18.9
2022-08-14T03:47:00.777Z,18.8
2022-08-14T03:49:25.913Z,18.8
2022-08-14T03:51:52.526Z,18.8
2022-08-14T03:54:19.160Z,18.8
2022-08-14T03:56:45.778Z,18.8
2022-08-14T03:59:12.406Z,18.8
2022-08-14T04:01:39.018Z,18.7
2022-08-14T04:04:05.640Z,18.7
2022-08-14T04:06:32.291Z,18.7
2022-08-14T04:08:58.894Z,18.6
2022-08-14T04:11:25.558Z,18.6
2022-08-14T04:13:52.137Z,18.5
2022-08-14T04:16:18.758Z,18.5
2022-08-14T04:18:45.394Z,18.5
2022-08-14T04:21:12.002Z,18.5
2022-08-14T04:23:38.630Z,18.4
2022-08-14T04:26:03.748Z,18.4
2022-08-14T04:28:30.373Z,18.4
2022-08-14T04:30:57.012Z,18.3
2022-08-14T04:33:23.622Z,18.3
2022-08-14T04:35:50.251Z,18.3
2022-08-14T04:38:16.866Z,18.3
2022-08-14T04:40:43.480Z,18.3
2022-08-14T04:43:10.107Z,18.2
2022-08-14T04:45:36.757Z,18.2
2022-08-14T04:48:03.378Z,18.2
2022-08-14T04:50:29.995Z,18.2
2022-08-14T04:52:56.606Z,18.1
2022-08-14T04:55:23.239Z,18.1
2022-08-14T04:57:49.865Z,18.1
2022-08-14T05:00:14.975Z,18.1
2022-08-14T05:02:41.613Z,18
2022-08-14T05:05:08.231Z,18
2022-08-14T05:07:34.883Z,18
2022-08-14T05:10:01.477Z,17.9
2022-08-14T05:12:28.105Z,17.9
2022-08-14T05:14:54.732Z,17.9
2022-08-14T05:17:21.335Z,17.9
2022-08-14T05:19:47.980Z,17.9
2022-08-14T05:22:14.590Z,17.9
2022-08-14T05:24:41.228Z,17.9
2022-08-14T05:27:07.834Z,17.9
2022-08-14T05:29:34.473Z,17.9
2022-08-14T05:31:59.590Z,17.9
2022-08-14T05:34:26.219Z,17.9
2022-08-14T05:36:52.830Z,17.8
2022-08-14T05:39:19.465Z,17.8
2022-08-14T05:41:46.072Z,17.8
2022-08-14T05:44:12.710Z,17.8
2022-08-14T05:46:39.340Z,17.8
2022-08-14T05:49:05.987Z,17.8
2022-08-14T05:51:32.588Z,17.8
2022-08-14T05:53:59.204Z,17.9
2022-08-14T05:56:25.822Z,17.9
2022-08-14T05:58:52.451Z,17.9
2022-08-14T06:01:19.068Z,17.9
2022-08-14T06:03:44.212Z,17.9
2022-08-14T06:06:10.806Z,18
2022-08-14T06:08:37.444Z,18
2022-08-14T06:11:04.067Z,18
2022-08-14T06:13:30.683Z,18.1
2022-08-14T06:15:57.309Z,18.1
2022-08-14T06:18:23.933Z,18.2
2022-08-14T06:20:50.573Z,18.2
2022-08-14T06:25:43.799Z,18.3
2022-08-14T06:28:08.945Z,18.4
2022-08-14T06:30:35.549Z,18.4
2022-08-14T06:33:02.187Z,18.5
2022-08-14T06:35:28.814Z,18.5
2022-08-14T06:37:55.450Z,18.6
2022-08-14T06:40:22.042Z,18.7
2022-08-14T06:42:48.665Z,18.8
2022-08-14T06:45:15.292Z,18.8
2022-08-14T06:47:41.913Z,18.9
2022-08-14T06:50:08.530Z,19
2022-08-14T06:52:35.167Z,19.1
2022-08-14T06:55:01.773Z,19.2
2022-08-14T06:57:28.431Z,19.3
2022-08-14T06:59:53.539Z,19.4
2022-08-14T07:04:46.799Z,19.6
2022-08-14T07:07:13.405Z,19.7
2022-08-14T07:09:40.018Z,19.9
2022-08-14T07:12:07.895Z,20.1
2022-08-14T07:14:33.274Z,20.3
2022-08-14T07:16:59.922Z,20.5
2022-08-14T07:19:26.521Z,20.7
2022-08-14T07:21:53.155Z,21
2022-08-14T07:24:19.763Z,21.3
2022-08-14T07:26:46.388Z,21.6
2022-08-14T07:29:13.009Z,21.9
2022-08-14T07:31:38.129Z,22.2
2022-08-14T07:34:04.772Z,22.5
2022-08-14T07:36:31.385Z,22.7
2022-08-14T07:38:58.009Z,22.9
2022-08-14T07:41:24.627Z,23.1
2022-08-14T07:43:51.247Z,23.3
2022-08-14T07:46:17.881Z,23.5
2022-08-14T07:48:44.518Z,23.6
2022-08-14T07:51:11.128Z,23.8
2022-08-14T07:53:37.727Z,24.2
2022-08-14T07:56:04.362Z,24.6
2022-08-14T07:58:30.986Z,24.8
2022-08-14T08:00:57.609Z,25.1
2022-08-14T08:03:22.735Z,25.3
2022-08-14T08:05:52.718Z,25.5
2022-08-14T08:08:15.981Z,25.8
2022-08-14T08:10:42.602Z,26
2022-08-14T08:13:09.250Z,26.3
2022-08-14T08:15:35.849Z,26.7
2022-08-14T08:18:02.481Z,27
2022-08-14T08:20:29.115Z,27.3
2022-08-14T08:22:55.742Z,27.5
2022-08-14T08:25:22.344Z,27.7
2022-08-14T08:30:15.591Z,28.2
2022-08-14T08:32:42.201Z,28.5
2022-08-14T08:35:08.827Z,28.8
2022-08-14T08:37:33.959Z,29
2022-08-14T08:40:00.583Z,29.4
2022-08-14T08:42:27.196Z,29.6
2022-08-14T08:44:53.827Z,29.9
2022-08-14T08:47:20.465Z,30.1
2022-08-14T08:49:47.069Z,30.3
2022-08-14T08:52:13.686Z,30.5
2022-08-14T08:54:40.329Z,30.8
2022-08-14T08:57:06.939Z,30.9
2022-08-14T08:59:33.576Z,31.1
2022-08-14T09:02:00.191Z,31.2
2022-08-14T09:04:26.810Z,31.3
2022-08-14T09:06:53.440Z,31.5
2022-08-14T09:09:18.568Z,31.6
2022-08-14T09:11:45.187Z,31.8
2022-08-14T09:14:11.811Z,32
2022-08-14T09:16:38.436Z,32.1
2022-08-14T09:19:05.060Z,32.3
2022-08-14T09:21:31.703Z,32.5
2022-08-14T09:23:58.291Z,32.6
2022-08-14T09:26:24.929Z,32.8
2022-08-14T09:28:51.556Z,32.8
2022-08-14T09:31:18.176Z,32.9
2022-08-14T09:33:44.787Z,32.9
2022-08-14T09:36:11.422Z,33.1
2022-08-14T09:38:38.042Z,33.2
2022-08-14T09:41:03.211Z,33.4
2022-08-14T09:45:56.420Z,33.7
2022-08-14T09:48:23.038Z,33.9
2022-08-14T09:50:49.668Z,34
2022-08-14T09:53:16.278Z,34.1
2022-08-14T09:55:42.916Z,34.2
2022-08-14T09:58:09.526Z,34.3
2022-08-14T10:00:36.150Z,34.3
2022-08-14T10:03:02.770Z,34.4
2022-08-14T10:05:29.395Z,34.5
2022-08-14T10:07:56.026Z,34.6
2022-08-14T10:10:22.635Z,34.7
2022-08-14T10:12:49.260Z,34.8
2022-08-14T10:15:14.398Z,34.8
2022-08-14T10:17:41.010Z,34.9
2022-08-14T10:20:07.635Z,34.8
2022-08-14T10:22:34.263Z,34.8
2022-08-14T10:25:00.895Z,34.8
2022-08-14T10:27:27.519Z,34.9
2022-08-14T10:29:54.146Z,35
2022-08-14T10:32:20.764Z,35.1
2022-08-14T10:34:47.372Z,35.2
2022-08-14T10:37:14.007Z,35.2
2022-08-14T10:39:40.649Z,35.2
2022-08-14T10:42:07.262Z,35.1
2022-08-14T10:47:00.498Z,35.1
2022-08-14T10:49:25.629Z,35.2
2022-08-14T10:51:52.252Z,35.3
2022-08-14T10:54:18.880Z,35.3
2022-08-14T10:56:45.524Z,35.4
2022-08-14T10:59:12.122Z,35.4
2022-08-14T11:01:38.763Z,35.5
2022-08-14T11:04:05.370Z,35.7
2022-08-14T11:06:32.002Z,35.8
2022-08-14T11:08:58.658Z,36
2022-08-14T11:11:25.241Z,36.1
2022-08-14T11:13:51.877Z,36.1
2022-08-14T11:16:18.493Z,36.2
2022-08-14T11:18:45.146Z,36.4
2022-08-14T11:21:10.266Z,36.6
2022-08-14T11:23:36.865Z,36.8
2022-08-14T11:26:03.497Z,37
2022-08-14T11:28:30.120Z,37
2022-08-14T11:30:56.747Z,37.1
2022-08-14T11:33:23.384Z,37
2022-08-14T11:35:50.003Z,36.9
2022-08-14T11:38:16.655Z,36.9
2022-08-14T11:40:43.235Z,37
2022-08-14T11:43:09.859Z,37
2022-08-14T11:45:36.480Z,37.1
2022-08-14T11:48:03.103Z,37.3
2022-08-14T11:52:56.375Z,37.5
2022-08-14T11:55:21.482Z,37.6
2022-08-14T11:57:48.126Z,37.6
2022-08-14T12:00:14.736Z,37.6
2022-08-14T12:05:07.980Z,37.5
2022-08-14T12:07:34.608Z,37.6
2022-08-14T12:10:01.225Z,37.6
2022-08-14T12:12:27.848Z,37.7
2022-08-14T12:14:54.497Z,37.6
2022-08-14T12:17:21.106Z,37.6
2022-08-14T12:19:47.736Z,37.6
2022-08-14T12:22:14.354Z,37.7
2022-08-14T12:24:40.979Z,37.8
2022-08-14T12:29:34.251Z,38.3
2022-08-14T12:32:00.837Z,38.5
2022-08-14T12:34:27.486Z,38.6
2022-08-14T12:36:54.088Z,38.6
2022-08-14T12:39:19.259Z,38.7
2022-08-14T12:41:44.361Z,38.8
2022-08-14T12:46:37.602Z,39.1
2022-08-14T12:51:30.853Z,39.4
2022-08-14T12:53:57.497Z,39.5
2022-08-14T12:56:24.092Z,39.5
2022-08-14T12:58:50.734Z,39.5
2022-08-14T13:01:17.342Z,39.6
2022-08-14T13:06:10.620Z,39.6
2022-08-14T13:18:23.754Z,39.6
2022-08-14T13:20:50.356Z,39.8
2022-08-14T13:23:16.989Z,39.9
2022-08-14T13:25:43.584Z,39.9
2022-08-14T13:28:10.235Z,39.8
2022-08-14T13:30:36.867Z,39.8
2022-08-14T13:33:01.995Z,39.8
2022-08-14T13:35:27.130Z,39.9
2022-08-14T13:37:53.746Z,39.9
2022-08-14T13:40:20.370Z,40
2022-08-14T13:42:46.978Z,40.1
2022-08-14T13:45:13.595Z,40
2022-08-14T13:47:40.250Z,40
2022-08-14T13:50:06.846Z,39.8
2022-08-14T13:52:33.475Z,39.6
2022-08-14T13:55:00.100Z,39.5
2022-08-14T13:59:53.382Z,39.5
2022-08-14T14:02:19.971Z,39.4
2022-08-14T14:07:13.217Z,39.2
2022-08-14T14:09:38.349Z,39.2
2022-08-14T14:14:31.586Z,39.3
2022-08-14T14:19:24.840Z,39.5
2022-08-14T14:21:51.494Z,39.6
2022-08-14T14:24:18.105Z,39.6
2022-08-14T14:26:44.743Z,39.7
2022-08-14T14:29:11.362Z,39.8
2022-08-14T14:31:37.954Z,39.8
2022-08-14T14:34:04.586Z,39.8
2022-08-14T14:36:31.207Z,39.9
2022-08-14T14:38:56.349Z,40.1
2022-08-14T14:43:49.587Z,40.1
2022-08-14T14:51:09.098Z,40.6
2022-08-14T14:53:34.881Z,40.6
2022-08-14T14:58:28.142Z,40.6
2022-08-14T15:03:21.399Z,40.7
2022-08-14T15:05:48.045Z,40.8
2022-08-14T15:08:14.634Z,40.7
2022-08-14T15:10:41.282Z,40.5
2022-08-14T15:13:07.891Z,40.2
2022-08-14T15:15:34.516Z,40
2022-08-14T15:17:59.646Z,39.6
2022-08-14T15:20:26.270Z,39.4
2022-08-14T15:22:52.908Z,39.4
2022-08-14T15:25:19.506Z,39.3
2022-08-14T15:27:46.129Z,39.4
2022-08-14T15:30:12.781Z,39.4
2022-08-14T15:32:39.382Z,39.3
2022-08-14T15:35:05.997Z,39.1
2022-08-14T15:37:32.629Z,39
2022-08-14T15:39:59.254Z,39
2022-08-14T15:42:25.882Z,38.9
2022-08-14T15:44:52.542Z,38.9
2022-08-14T15:47:19.134Z,38.9
2022-08-14T15:49:45.767Z,38.9
2022-08-14T15:52:12.384Z,38.9
2022-08-14T15:54:37.514Z,38.8
2022-08-14T15:57:02.634Z,38.6
2022-08-14T15:59:29.252Z,38.6
2022-08-14T16:01:55.895Z,38.5
2022-08-14T16:04:22.498Z,38.4
2022-08-14T16:09:15.792Z,38.4
2022-08-14T16:11:42.392Z,38.2
2022-08-14T16:14:09.011Z,38.1
2022-08-14T16:16:35.632Z,38
2022-08-14T16:19:02.272Z,37.9
2022-08-14T16:21:28.879Z,37.8
2022-08-14T16:23:55.533Z,37.7
2022-08-14T16:26:22.149Z,37.6
2022-08-14T16:28:47.289Z,37.6
2022-08-14T16:33:40.512Z,37.6
2022-08-14T16:36:05.670Z,37.6
2022-08-14T16:40:58.880Z,37.6
2022-08-14T16:43:24.019Z,37.6
2022-08-14T16:45:50.631Z,37.5
2022-08-14T16:50:43.903Z,37.4
2022-08-14T16:53:10.535Z,37.4
2022-08-14T16:58:03.774Z,37.3
2022-08-14T17:00:30.407Z,37.2
2022-08-14T17:02:57.020Z,37.2
2022-08-14T17:05:23.652Z,37.2
2022-08-14T17:07:50.250Z,37.1
2022-08-14T17:10:16.899Z,37.1
2022-08-14T17:12:43.512Z,37
2022-08-14T17:15:08.615Z,37
2022-08-14T17:17:35.316Z,36.9
2022-08-14T17:22:28.524Z,36.8
2022-08-14T17:24:55.120Z,36.7
2022-08-14T17:29:48.396Z,36.6
2022-08-14T17:32:14.996Z,36.5
2022-08-14T17:34:41.622Z,36.5
2022-08-14T17:37:08.268Z,36.4
2022-08-14T17:44:28.153Z,36.1
2022-08-14T17:46:53.238Z,36
2022-08-14T17:49:19.901Z,35.9
2022-08-14T17:51:46.492Z,35.8
2022-08-14T17:54:13.135Z,35.7
2022-08-14T17:59:06.376Z,35.6
2022-08-14T18:01:33.029Z,35.5
2022-08-14T18:03:59.621Z,35.4
2022-08-14T18:06:26.261Z,35.3
2022-08-14T18:08:52.867Z,35.2
2022-08-14T18:13:46.113Z,35
2022-08-14T18:18:39.374Z,34.8
2022-08-14T18:21:04.473Z,34.7
2022-08-14T18:23:31.101Z,34.6
2022-08-14T18:28:24.357Z,34.4
2022-08-14T18:30:50.968Z,34.3
2022-08-14T18:33:17.616Z,34.2
2022-08-14T18:35:44.228Z,34.1
2022-08-14T18:38:10.866Z,33.9
2022-08-14T18:40:37.479Z,33.9
2022-08-14T18:43:04.096Z,33.8
2022-08-14T18:47:57.331Z,33.6
2022-08-14T18:50:23.971Z,33.5
2022-08-14T18:52:49.075Z,33.5
2022-08-14T18:55:15.777Z,33.4
2022-08-14T18:57:42.354Z,33.3
2022-08-14T19:02:35.609Z,32.9
2022-08-14T19:05:02.216Z,32.8
2022-08-14T19:07:28.829Z,32.7
2022-08-14T19:12:22.088Z,32.5
2022-08-14T19:14:48.694Z,32.4
2022-08-14T19:17:15.381Z,32.3
2022-08-14T19:19:41.955Z,32.2
2022-08-14T19:22:08.578Z,32.1
2022-08-14T19:24:35.226Z,32
2022-08-14T19:27:01.837Z,31.9
2022-08-14T19:29:26.974Z,31.9
2022-08-14T19:31:53.608Z,31.7
2022-08-14T19:34:20.200Z,31.6
2022-08-14T19:36:46.816Z,31.5
2022-08-14T19:39:13.464Z,31.4
2022-08-14T19:41:40.092Z,31.3
2022-08-14T19:46:33.318Z,31.2
2022-08-14T19:48:59.949Z,31.1
2022-08-14T19:51:26.552Z,30.9
2022-08-14T19:53:53.171Z,30.5
2022-08-14T19:56:19.797Z,30.3
2022-08-14T19:58:46.457Z,30.2
2022-08-14T20:01:11.549Z,30.1
2022-08-14T20:03:36.678Z,30
2022-08-14T20:06:03.297Z,29.8
2022-08-14T20:15:49.846Z,29.6
2022-08-14T20:18:14.930Z,29.6
2022-08-14T20:20:41.590Z,29.5
2022-08-14T20:25:34.796Z,29.4
2022-08-14T20:28:01.463Z,29.3
2022-08-14T20:30:28.051Z,29.3
2022-08-14T20:32:54.770Z,29.3
2022-08-14T20:37:47.920Z,29.2
2022-08-14T20:40:14.534Z,29.2
2022-08-14T20:42:39.722Z,29.2
2022-08-14T20:45:04.801Z,29.1
2022-08-14T20:47:31.418Z,29
2022-08-14T20:49:58.037Z,28.9
2022-08-14T20:52:24.684Z,28.8
2022-08-14T20:54:51.276Z,28.8
2022-08-14T20:57:17.895Z,28.7
2022-08-14T21:02:11.152Z,28.6
2022-08-14T21:04:37.776Z,28.6
2022-08-14T21:07:04.393Z,28.6
2022-08-14T21:09:31.013Z,28.6
2022-08-14T21:14:24.253Z,28.4
2022-08-14T21:16:49.385Z,28.3
2022-08-14T21:19:16.043Z,28.1
2022-08-14T21:21:42.693Z,28.1
2022-08-14T21:26:35.890Z,28
2022-08-14T21:31:29.139Z,28
2022-08-14T21:33:55.750Z,27.9
2022-08-14T21:36:22.446Z,27.9
2022-08-14T21:38:49.013Z,27.8
2022-08-14T21:43:42.255Z,27.8
2022-08-14T21:46:08.921Z,27.8
2022-08-14T21:48:33.983Z,27.7
2022-08-14T21:51:00.663Z,27.7
2022-08-14T21:53:27.266Z,27.7
2022-08-14T21:55:53.865Z,27.7
2022-08-14T21:58:20.496Z,27.5
2022-08-14T22:03:13.743Z,27.2
2022-08-14T22:05:40.369Z,27.2
2022-08-14T22:08:06.999Z,27.1
2022-08-14T22:10:33.639Z,27.2
2022-08-14T22:13:00.255Z,27.1
2022-08-14T22:15:26.860Z,27.1
2022-08-14T22:20:20.105Z,27.1
2022-08-14T22:22:45.232Z,27.1
2022-08-14T22:25:11.871Z,27.1
2022-08-14T22:27:38.485Z,27.1
2022-08-14T22:30:05.095Z,27
2022-08-14T22:32:31.707Z,26.9
2022-08-14T22:34:58.368Z,26.9
2022-08-14T22:37:24.972Z,26.8
2022-08-14T22:39:51.593Z,26.8
2022-08-14T22:42:18.209Z,26.8
2022-08-14T22:44:45.077Z,26.8
2022-08-14T22:47:11.446Z,26.7
2022-08-14T22:52:03.231Z,26.7
2022-08-14T22:54:28.329Z,26.7
2022-08-14T22:56:54.969Z,26.7
2022-08-14T22:59:21.591Z,26.6
2022-08-14T23:04:14.833Z,26.6
2022-08-14T23:06:41.701Z,26.6
2022-08-14T23:11:34.693Z,26.6
2022-08-14T23:14:01.355Z,26.6
2022-08-14T23:16:27.968Z,26.6
2022-08-14T23:21:21.200Z,26.5
2022-08-14T23:23:47.811Z,26.5
2022-08-14T23:28:44.678Z,26.4
2022-08-14T23:31:06.215Z,26.3
2022-08-14T23:33:32.818Z,26.2
2022-08-14T23:35:59.415Z,26.1
2022-08-14T23:38:26.053Z,26.1
2022-08-14T23:40:52.720Z,26.1
2022-08-14T23:43:19.320Z,26
2022-08-14T23:45:45.922Z,26
2022-08-14T23:48:12.556Z,26
2022-08-14T23:50:39.164Z,26
2022-08-14T23:53:05.774Z,26
2022-08-14T23:55:32.456Z,25.9
2022-08-14T23:57:57.548Z,25.9
